sensor_id;sensor_type;location;lat;lon;timestamp;P1;durP1;ratioP1;P2;durP2;ratioP2
7503;SDS011;3793;48.136;11.536;2022-10-16T00:05:07;5.87;;;2.80;;
7503;SDS011;3793;48.136;11.536;2022-10-16T00:07:42;3.50;;;2.57;;
7503;SDS011;3793;48.136;11.536;2022-10-16T00:10:23;3.50;;;3.00;;
7503;SDS011;3793;48.136;11.536;2022-10-16T00:13:03;3.33;;;2.73;;
7503;SDS011;3793;48.136;11.536;2022-10-16T00:15:47;5.93;;;2.50;;
7503;SDS011;3793;48.136;11.536;2022-10-16T00:18:29;6.30;;;2.40;;
7503;SDS011;3793;48.136;11.536;2022-10-16T00:21:14;3.10;;;2.80;;
7503;SDS011;3793;48.136;11.536;2022-10-16T00:23:45;7.67;;;2.60;;
7503;SDS011;3793;48.136;11.536;2022-10-16T00:29:17;3.47;;;2.50;;
7503;SDS011;3793;48.136;11.536;2022-10-16T00:32:03;4.53;;;2.40;;
7503;SDS011;3793;48.136;11.536;2022-10-16T00:34:56;4.13;;;2.67;;
7503;SDS011;3793;48.136;11.536;2022-10-16T00:37:23;3.47;;;2.03;;
7503;SDS011;3793;48.136;11.536;2022-10-16T00:40:01;4.27;;;2.80;;
7503;SDS011;3793;48.136;11.536;2022-10-16T00:42:37;3.63;;;2.33;;
7503;SDS011;3793;48.136;11.536;2022-10-16T00:45:10;2.70;;;2.37;;
7503;SDS011;3793;48.136;11.536;2022-10-16T00:47:54;2.83;;;2.53;;
7503;SDS011;3793;48.136;11.536;2022-10-16T00:50:26;4.90;;;2.20;;
7503;SDS011;3793;48.136;11.536;2022-10-16T00:53:09;3.63;;;2.10;;
7503;SDS011;3793;48.136;11.536;2022-10-16T00:55:51;3.93;;;2.60;;
7503;SDS011;3793;48.136;11.536;2022-10-16T00:58:40;4.67;;;2.43;;
7503;SDS011;3793;48.136;11.536;2022-10-16T01:01:17;2.50;;;2.20;;
7503;SDS011;3793;48.136;11.536;2022-10-16T01:04:04;3.37;;;2.57;;
7503;SDS011;3793;48.136;11.536;2022-10-16T01:06:37;3.97;;;2.47;;
7503;SDS011;3793;48.136;11.536;2022-10-16T01:09:11;3.33;;;2.43;;
7503;SDS011;3793;48.136;11.536;2022-10-16T01:12:08;4.03;;;2.53;;
7503;SDS011;3793;48.136;11.536;2022-10-16T01:15:06;6.20;;;2.53;;
7503;SDS011;3793;48.136;11.536;2022-10-16T01:17:51;2.60;;;2.10;;
7503;SDS011;3793;48.136;11.536;2022-10-16T01:20:37;3.03;;;2.10;;
7503;SDS011;3793;48.136;11.536;2022-10-16T01:23:10;2.70;;;2.17;;
7503;SDS011;3793;48.136;11.536;2022-10-16T01:25:57;2.23;;;2.00;;
7503;SDS011;3793;48.136;11.536;2022-10-16T01:28:32;4.37;;;2.10;;
7503;SDS011;3793;48.136;11.536;2022-10-16T01:31:01;3.83;;;2.00;;
7503;SDS011;3793;48.136;11.536;2022-10-16T01:33:28;4.50;;;1.90;;
7503;SDS011;3793;48.136;11.536;2022-10-16T01:36:02;3.70;;;2.30;;
7503;SDS011;3793;48.136;11.536;2022-10-16T01:38:33;2.97;;;2.10;;
7503;SDS011;3793;48.136;11.536;2022-10-16T01:41:21;3.43;;;2.10;;
7503;SDS011;3793;48.136;11.536;2022-10-16T01:44:00;2.90;;;2.00;;
7503;SDS011;3793;48.136;11.536;2022-10-16T01:46:42;6.47;;;2.13;;
7503;SDS011;3793;48.136;11.536;2022-10-16T01:49:13;3.67;;;2.80;;
7503;SDS011;3793;48.136;11.536;2022-10-16T01:51:39;6.23;;;2.70;;
7503;SDS011;3793;48.136;11.536;2022-10-16T01:54:28;7.53;;;4.07;;
7503;SDS011;3793;48.136;11.536;2022-10-16T01:56:59;5.27;;;2.97;;
7503;SDS011;3793;48.136;11.536;2022-10-16T01:59:31;3.80;;;2.30;;
7503;SDS011;3793;48.136;11.536;2022-10-16T02:02:08;3.70;;;2.20;;
7503;SDS011;3793;48.136;11.536;2022-10-16T02:04:45;3.87;;;2.20;;
7503;SDS011;3793;48.136;11.536;2022-10-16T02:07:13;5.27;;;2.27;;
7503;SDS011;3793;48.136;11.536;2022-10-16T02:12:27;2.03;;;1.70;;
7503;SDS011;3793;48.136;11.536;2022-10-16T02:15:15;2.77;;;1.97;;
7503;SDS011;3793;48.136;11.536;2022-10-16T02:17:59;2.70;;;2.00;;
7503;SDS011;3793;48.136;11.536;2022-10-16T02:20:37;2.67;;;1.77;;
7503;SDS011;3793;48.136;11.536;2022-10-16T02:23:18;4.47;;;1.70;;
7503;SDS011;3793;48.136;11.536;2022-10-16T02:25:49;2.27;;;1.83;;
7503;SDS011;3793;48.136;11.536;2022-10-16T02:28:26;2.97;;;1.63;;
7503;SDS011;3793;48.136;11.536;2022-10-16T02:31:10;1.87;;;1.60;;
7503;SDS011;3793;48.136;11.536;2022-10-16T02:33:47;4.33;;;1.70;;
7503;SDS011;3793;48.136;11.536;2022-10-16T02:36:27;2.33;;;1.60;;
7503;SDS011;3793;48.136;11.536;2022-10-16T02:38:57;1.97;;;1.77;;
7503;SDS011;3793;48.136;11.536;2022-10-16T02:41:34;1.60;;;1.50;;
7503;SDS011;3793;48.136;11.536;2022-10-16T02:44:06;2.00;;;1.73;;
7503;SDS011;3793;48.136;11.536;2022-10-16T02:46:38;2.93;;;2.00;;
7503;SDS011;3793;48.136;11.536;2022-10-16T02:49:08;3.37;;;1.53;;
7503;SDS011;3793;48.136;11.536;2022-10-16T02:51:35;3.23;;;1.63;;
7503;SDS011;3793;48.136;11.536;2022-10-16T02:54:02;2.00;;;1.60;;
7503;SDS011;3793;48.136;11.536;2022-10-16T02:56:38;2.93;;;2.00;;
7503;SDS011;3793;48.136;11.536;2022-10-16T02:59:07;2.27;;;1.67;;
7503;SDS011;3793;48.136;11.536;2022-10-16T03:01:36;3.17;;;1.70;;
7503;SDS011;3793;48.136;11.536;2022-10-16T03:04:09;3.37;;;1.67;;
7503;SDS011;3793;48.136;11.536;2022-10-16T03:06:40;5.30;;;1.87;;
7503;SDS011;3793;48.136;11.536;2022-10-16T03:09:07;2.60;;;1.67;;
7503;SDS011;3793;48.136;11.536;2022-10-16T03:11:38;2.30;;;1.40;;
7503;SDS011;3793;48.136;11.536;2022-10-16T03:14:06;3.20;;;1.50;;
7503;SDS011;3793;48.136;11.536;2022-10-16T03:16:38;4.33;;;1.67;;
7503;SDS011;3793;48.136;11.536;2022-10-16T03:19:05;2.07;;;1.53;;
7503;SDS011;3793;48.136;11.536;2022-10-16T03:21:45;2.93;;;1.70;;
7503;SDS011;3793;48.136;11.536;2022-10-16T03:24:14;2.73;;;1.60;;
7503;SDS011;3793;48.136;11.536;2022-10-16T03:26:48;3.30;;;1.97;;
7503;SDS011;3793;48.136;11.536;2022-10-16T03:29:20;3.93;;;2.03;;
7503;SDS011;3793;48.136;11.536;2022-10-16T03:34:33;2.93;;;1.77;;
7503;SDS011;3793;48.136;11.536;2022-10-16T03:37:14;2.93;;;1.77;;
7503;SDS011;3793;48.136;11.536;2022-10-16T03:39:46;2.53;;;1.80;;
7503;SDS011;3793;48.136;11.536;2022-10-16T03:42:18;4.47;;;2.17;;
7503;SDS011;3793;48.136;11.536;2022-10-16T03:44:53;2.37;;;1.60;;
7503;SDS011;3793;48.136;11.536;2022-10-16T03:47:21;1.80;;;1.53;;
7503;SDS011;3793;48.136;11.536;2022-10-16T03:49:48;4.73;;;1.90;;
7503;SDS011;3793;48.136;11.536;2022-10-16T03:52:16;1.83;;;1.70;;
7503;SDS011;3793;48.136;11.536;2022-10-16T03:54:43;4.57;;;2.00;;
7503;SDS011;3793;48.136;11.536;2022-10-16T03:57:09;2.20;;;1.80;;
7503;SDS011;3793;48.136;11.536;2022-10-16T03:59:36;4.27;;;1.90;;
7503;SDS011;3793;48.136;11.536;2022-10-16T04:02:03;2.17;;;1.80;;
7503;SDS011;3793;48.136;11.536;2022-10-16T04:04:29;3.13;;;1.60;;
7503;SDS011;3793;48.136;11.536;2022-10-16T04:06:56;1.73;;;1.60;;
7503;SDS011;3793;48.136;11.536;2022-10-16T04:09:24;2.43;;;1.70;;
7503;SDS011;3793;48.136;11.536;2022-10-16T04:11:51;2.27;;;1.87;;
7503;SDS011;3793;48.136;11.536;2022-10-16T04:14:17;2.43;;;1.87;;
7503;SDS011;3793;48.136;11.536;2022-10-16T04:16:44;3.73;;;1.87;;
7503;SDS011;3793;48.136;11.536;2022-10-16T04:19:11;1.90;;;1.60;;
7503;SDS011;3793;48.136;11.536;2022-10-16T04:21:37;3.17;;;1.83;;
7503;SDS011;3793;48.136;11.536;2022-10-16T04:24:04;2.13;;;1.90;;
7503;SDS011;3793;48.136;11.536;2022-10-16T04:26:32;3.13;;;2.33;;
7503;SDS011;3793;48.136;11.536;2022-10-16T04:28:59;2.87;;;1.90;;
7503;SDS011;3793;48.136;11.536;2022-10-16T04:31:25;3.83;;;2.20;;
7503;SDS011;3793;48.136;11.536;2022-10-16T04:33:52;6.70;;;1.90;;
7503;SDS011;3793;48.136;11.536;2022-10-16T04:36:18;1.90;;;1.63;;
7503;SDS011;3793;48.136;11.536;2022-10-16T04:38:45;3.00;;;1.63;;
7503;SDS011;3793;48.136;11.536;2022-10-16T04:41:11;1.80;;;1.70;;
7503;SDS011;3793;48.136;11.536;2022-10-16T04:43:39;2.40;;;1.60;;
7503;SDS011;3793;48.136;11.536;2022-10-16T04:46:06;3.53;;;1.90;;
7503;SDS011;3793;48.136;11.536;2022-10-16T04:48:32;2.00;;;1.80;;
7503;SDS011;3793;48.136;11.536;2022-10-16T04:50:59;2.17;;;1.70;;
7503;SDS011;3793;48.136;11.536;2022-10-16T04:53:26;1.80;;;1.70;;
7503;SDS011;3793;48.136;11.536;2022-10-16T04:55:52;2.30;;;1.37;;
7503;SDS011;3793;48.136;11.536;2022-10-16T04:58:19;1.90;;;1.70;;
7503;SDS011;3793;48.136;11.536;2022-10-16T05:00:47;2.73;;;1.60;;
7503;SDS011;3793;48.136;11.536;2022-10-16T05:03:14;2.27;;;1.53;;
7503;SDS011;3793;48.136;11.536;2022-10-16T05:05:42;2.13;;;1.80;;
7503;SDS011;3793;48.136;11.536;2022-10-16T05:08:08;1.87;;;1.67;;
7503;SDS011;3793;48.136;11.536;2022-10-16T05:10:35;2.67;;;1.90;;
7503;SDS011;3793;48.136;11.536;2022-10-16T05:13:01;1.90;;;1.70;;
7503;SDS011;3793;48.136;11.536;2022-10-16T05:15:28;2.27;;;1.60;;
7503;SDS011;3793;48.136;11.536;2022-10-16T05:17:56;4.23;;;1.80;;
7503;SDS011;3793;48.136;11.536;2022-10-16T05:20:23;3.37;;;1.60;;
7503;SDS011;3793;48.136;11.536;2022-10-16T05:22:49;1.90;;;1.60;;
7503;SDS011;3793;48.136;11.536;2022-10-16T05:25:16;1.93;;;1.73;;
7503;SDS011;3793;48.136;11.536;2022-10-16T05:27:43;3.47;;;1.73;;
7503;SDS011;3793;48.136;11.536;2022-10-16T05:30:10;2.23;;;1.83;;
7503;SDS011;3793;48.136;11.536;2022-10-16T05:32:36;2.83;;;1.90;;
7503;SDS011;3793;48.136;11.536;2022-10-16T05:35:04;2.00;;;1.80;;
7503;SDS011;3793;48.136;11.536;2022-10-16T05:37:31;2.70;;;1.50;;
7503;SDS011;3793;48.136;11.536;2022-10-16T05:39:58;3.23;;;1.80;;
7503;SDS011;3793;48.136;11.536;2022-10-16T05:42:24;4.47;;;1.77;;
7503;SDS011;3793;48.136;11.536;2022-10-16T05:44:51;2.37;;;1.70;;
7503;SDS011;3793;48.136;11.536;2022-10-16T05:47:18;6.73;;;2.20;;
7503;SDS011;3793;48.136;11.536;2022-10-16T05:49:45;3.00;;;2.37;;
7503;SDS011;3793;48.136;11.536;2022-10-16T05:52:14;6.60;;;2.07;;
7503;SDS011;3793;48.136;11.536;2022-10-16T05:54:40;3.23;;;2.00;;
7503;SDS011;3793;48.136;11.536;2022-10-16T05:57:07;3.43;;;1.90;;
7503;SDS011;3793;48.136;11.536;2022-10-16T05:59:33;2.60;;;1.87;;
7503;SDS011;3793;48.136;11.536;2022-10-16T06:02:00;3.47;;;2.13;;
7503;SDS011;3793;48.136;11.536;2022-10-16T06:04:27;3.17;;;2.17;;
7503;SDS011;3793;48.136;11.536;2022-10-16T06:06:53;3.53;;;2.27;;
7503;SDS011;3793;48.136;11.536;2022-10-16T06:09:22;2.03;;;1.83;;
7503;SDS011;3793;48.136;11.536;2022-10-16T06:11:48;3.10;;;2.03;;
7503;SDS011;3793;48.136;11.536;2022-10-16T06:14:15;3.97;;;2.43;;
7503;SDS011;3793;48.136;11.536;2022-10-16T06:16:41;3.53;;;2.30;;
7503;SDS011;3793;48.136;11.536;2022-10-16T06:19:08;2.33;;;2.13;;
7503;SDS011;3793;48.136;11.536;2022-10-16T06:21:35;3.13;;;2.17;;
7503;SDS011;3793;48.136;11.536;2022-10-16T06:24:01;3.17;;;1.97;;
7503;SDS011;3793;48.136;11.536;2022-10-16T06:26:30;3.33;;;2.53;;
7503;SDS011;3793;48.136;11.536;2022-10-16T06:28:57;3.87;;;2.20;;
7503;SDS011;3793;48.136;11.536;2022-10-16T06:31:24;2.30;;;2.10;;
7503;SDS011;3793;48.136;11.536;2022-10-16T06:33:52;2.83;;;2.13;;
7503;SDS011;3793;48.136;11.536;2022-10-16T06:36:19;2.60;;;2.30;;
7503;SDS011;3793;48.136;11.536;2022-10-16T06:38:46;2.53;;;2.30;;
7503;SDS011;3793;48.136;11.536;2022-10-16T06:41:13;3.37;;;2.30;;
7503;SDS011;3793;48.136;11.536;2022-10-16T06:43:41;3.87;;;2.27;;
7503;SDS011;3793;48.136;11.536;2022-10-16T06:46:09;3.93;;;2.43;;
7503;SDS011;3793;48.136;11.536;2022-10-16T06:48:36;2.93;;;2.60;;
7503;SDS011;3793;48.136;11.536;2022-10-16T06:51:04;4.47;;;2.70;;
7503;SDS011;3793;48.136;11.536;2022-10-16T06:53:31;5.30;;;2.70;;
7503;SDS011;3793;48.136;11.536;2022-10-16T06:56:05;2.57;;;2.10;;
7503;SDS011;3793;48.136;11.536;2022-10-16T06:58:32;4.60;;;2.70;;
7503;SDS011;3793;48.136;11.536;2022-10-16T07:01:00;2.97;;;2.27;;
7503;SDS011;3793;48.136;11.536;2022-10-16T07:03:27;3.17;;;2.70;;
7503;SDS011;3793;48.136;11.536;2022-10-16T07:05:53;4.60;;;2.60;;
7503;SDS011;3793;48.136;11.536;2022-10-16T07:08:20;7.07;;;2.40;;
7503;SDS011;3793;48.136;11.536;2022-10-16T07:10:46;2.50;;;2.30;;
7503;SDS011;3793;48.136;11.536;2022-10-16T07:13:13;3.07;;;2.50;;
7503;SDS011;3793;48.136;11.536;2022-10-16T07:15:40;3.90;;;2.67;;
7503;SDS011;3793;48.136;11.536;2022-10-16T07:18:08;3.50;;;2.40;;
7503;SDS011;3793;48.136;11.536;2022-10-16T07:20:35;3.00;;;2.67;;
7503;SDS011;3793;48.136;11.536;2022-10-16T07:23:02;4.87;;;2.40;;
7503;SDS011;3793;48.136;11.536;2022-10-16T07:25:29;4.07;;;2.43;;
7503;SDS011;3793;48.136;11.536;2022-10-16T07:27:55;4.37;;;2.80;;
7503;SDS011;3793;48.136;11.536;2022-10-16T07:30:22;2.53;;;2.17;;
7503;SDS011;3793;48.136;11.536;2022-10-16T07:32:49;5.23;;;2.77;;
7503;SDS011;3793;48.136;11.536;2022-10-16T07:35:17;2.30;;;2.10;;
7503;SDS011;3793;48.136;11.536;2022-10-16T07:37:44;3.30;;;2.37;;
7503;SDS011;3793;48.136;11.536;2022-10-16T07:40:11;2.53;;;2.30;;
7503;SDS011;3793;48.136;11.536;2022-10-16T07:42:37;4.40;;;2.13;;
7503;SDS011;3793;48.136;11.536;2022-10-16T07:45:04;2.90;;;2.30;;
7503;SDS011;3793;48.136;11.536;2022-10-16T07:47:31;2.90;;;2.20;;
7503;SDS011;3793;48.136;11.536;2022-10-16T07:49:58;2.17;;;1.97;;
7503;SDS011;3793;48.136;11.536;2022-10-16T07:52:26;3.10;;;2.27;;
7503;SDS011;3793;48.136;11.536;2022-10-16T07:54:53;2.53;;;2.10;;
7503;SDS011;3793;48.136;11.536;2022-10-16T07:57:19;4.90;;;2.70;;
7503;SDS011;3793;48.136;11.536;2022-10-16T07:59:46;2.50;;;2.13;;
7503;SDS011;3793;48.136;11.536;2022-10-16T08:02:12;2.25;;;1.95;;
7503;SDS011;3793;48.136;11.536;2022-10-16T08:04:39;2.53;;;1.92;;
7503;SDS011;3793;48.136;11.536;2022-10-16T08:07:06;3.20;;;1.77;;
7503;SDS011;3793;48.136;11.536;2022-10-16T08:09:34;2.42;;;2.08;;
7503;SDS011;3793;48.136;11.536;2022-10-16T08:12:01;3.58;;;2.08;;
7503;SDS011;3793;48.136;11.536;2022-10-16T08:14:29;2.28;;;1.85;;
7503;SDS011;3793;48.136;11.536;2022-10-16T08:16:56;2.55;;;2.15;;
7503;SDS011;3793;48.136;11.536;2022-10-16T08:19:22;2.58;;;2.10;;
7503;SDS011;3793;48.136;11.536;2022-10-16T08:21:49;1.80;;;1.52;;
7503;SDS011;3793;48.136;11.536;2022-10-16T08:24:15;1.95;;;1.73;;
7503;SDS011;3793;48.136;11.536;2022-10-16T08:26:44;2.95;;;1.45;;
7503;SDS011;3793;48.136;11.536;2022-10-16T08:29:12;1.75;;;1.60;;
7503;SDS011;3793;48.136;11.536;2022-10-16T08:31:39;2.50;;;1.90;;
7503;SDS011;3793;48.136;11.536;2022-10-16T08:34:06;2.70;;;1.90;;
7503;SDS011;3793;48.136;11.536;2022-10-16T08:36:33;2.03;;;1.42;;
7503;SDS011;3793;48.136;11.536;2022-10-16T08:38:59;2.58;;;1.92;;
7503;SDS011;3793;48.136;11.536;2022-10-16T08:44:21;1.83;;;1.60;;
7503;SDS011;3793;48.136;11.536;2022-10-16T08:46:54;2.05;;;1.58;;
7503;SDS011;3793;48.136;11.536;2022-10-16T08:49:25;2.80;;;2.10;;
7503;SDS011;3793;48.136;11.536;2022-10-16T08:51:56;2.30;;;1.77;;
7503;SDS011;3793;48.136;11.536;2022-10-16T08:54:26;4.13;;;2.10;;
7503;SDS011;3793;48.136;11.536;2022-10-16T08:57:00;3.40;;;2.20;;
7503;SDS011;3793;48.136;11.536;2022-10-16T08:59:29;3.88;;;3.15;;
7503;SDS011;3793;48.136;11.536;2022-10-16T09:01:55;5.43;;;3.05;;
7503;SDS011;3793;48.136;11.536;2022-10-16T09:04:26;2.90;;;2.60;;
7503;SDS011;3793;48.136;11.536;2022-10-16T09:06:59;2.78;;;2.00;;
7503;SDS011;3793;48.136;11.536;2022-10-16T09:09:38;3.10;;;2.30;;
7503;SDS011;3793;48.136;11.536;2022-10-16T09:12:10;2.20;;;1.73;;
7503;SDS011;3793;48.136;11.536;2022-10-16T09:14:48;2.80;;;1.85;;
7503;SDS011;3793;48.136;11.536;2022-10-16T09:17:22;2.30;;;2.00;;
7503;SDS011;3793;48.136;11.536;2022-10-16T09:19:51;2.97;;;1.80;;
7503;SDS011;3793;48.136;11.536;2022-10-16T09:22:19;2.45;;;2.03;;
7503;SDS011;3793;48.136;11.536;2022-10-16T09:24:48;1.95;;;1.85;;
7503;SDS011;3793;48.136;11.536;2022-10-16T09:27:15;2.38;;;1.80;;
7503;SDS011;3793;48.136;11.536;2022-10-16T09:29:44;4.93;;;1.83;;
7503;SDS011;3793;48.136;11.536;2022-10-16T09:32:15;2.15;;;1.50;;
7503;SDS011;3793;48.136;11.536;2022-10-16T09:34:45;2.70;;;1.70;;
7503;SDS011;3793;48.136;11.536;2022-10-16T09:37:13;2.17;;;1.88;;
7503;SDS011;3793;48.136;11.536;2022-10-16T09:39:44;3.42;;;2.03;;
7503;SDS011;3793;48.136;11.536;2022-10-16T09:42:11;2.05;;;1.85;;
7503;SDS011;3793;48.136;11.536;2022-10-16T09:44:39;2.17;;;1.60;;
7503;SDS011;3793;48.136;11.536;2022-10-16T09:47:12;2.38;;;2.08;;
7503;SDS011;3793;48.136;11.536;2022-10-16T09:49:49;1.92;;;1.60;;
7503;SDS011;3793;48.136;11.536;2022-10-16T09:52:16;2.38;;;2.17;;
7503;SDS011;3793;48.136;11.536;2022-10-16T09:54:51;3.00;;;2.03;;
7503;SDS011;3793;48.136;11.536;2022-10-16T09:57:18;2.17;;;1.98;;
7503;SDS011;3793;48.136;11.536;2022-10-16T09:59:46;2.17;;;1.85;;
7503;SDS011;3793;48.136;11.536;2022-10-16T10:02:13;1.83;;;1.70;;
7503;SDS011;3793;48.136;11.536;2022-10-16T10:04:49;1.67;;;1.52;;
7503;SDS011;3793;48.136;11.536;2022-10-16T10:07:17;2.45;;;1.80;;
7503;SDS011;3793;48.136;11.536;2022-10-16T10:09:44;2.65;;;1.60;;
7503;SDS011;3793;48.136;11.536;2022-10-16T10:12:16;1.80;;;1.55;;
7503;SDS011;3793;48.136;11.536;2022-10-16T10:14:44;2.00;;;1.73;;
7503;SDS011;3793;48.136;11.536;2022-10-16T10:17:14;3.38;;;1.60;;
7503;SDS011;3793;48.136;11.536;2022-10-16T10:19:41;2.20;;;1.90;;
7503;SDS011;3793;48.136;11.536;2022-10-16T10:22:17;2.45;;;1.45;;
7503;SDS011;3793;48.136;11.536;2022-10-16T10:24:54;3.03;;;1.70;;
7503;SDS011;3793;48.136;11.536;2022-10-16T10:27:20;2.38;;;1.92;;
7503;SDS011;3793;48.136;11.536;2022-10-16T10:29:49;1.77;;;1.65;;
7503;SDS011;3793;48.136;11.536;2022-10-16T10:32:22;2.25;;;1.48;;
7503;SDS011;3793;48.136;11.536;2022-10-16T10:34:59;1.35;;;1.25;;
7503;SDS011;3793;48.136;11.536;2022-10-16T10:37:37;1.83;;;1.73;;
7503;SDS011;3793;48.136;11.536;2022-10-16T10:40:09;2.28;;;1.90;;
7503;SDS011;3793;48.136;11.536;2022-10-16T10:42:40;2.13;;;1.60;;
7503;SDS011;3793;48.136;11.536;2022-10-16T10:45:17;1.45;;;1.33;;
7503;SDS011;3793;48.136;11.536;2022-10-16T10:47:50;2.38;;;1.60;;
7503;SDS011;3793;48.136;11.536;2022-10-16T10:50:20;1.20;;;1.10;;
7503;SDS011;3793;48.136;11.536;2022-10-16T10:52:56;1.70;;;1.33;;
7503;SDS011;3793;48.136;11.536;2022-10-16T10:55:26;2.13;;;1.52;;
7503;SDS011;3793;48.136;11.536;2022-10-16T10:58:00;1.83;;;1.20;;
7503;SDS011;3793;48.136;11.536;2022-10-16T11:00:31;1.65;;;1.25;;
7503;SDS011;3793;48.136;11.536;2022-10-16T11:03:03;2.10;;;1.70;;
7503;SDS011;3793;48.136;11.536;2022-10-16T11:05:38;1.88;;;1.42;;
7503;SDS011;3793;48.136;11.536;2022-10-16T11:08:08;2.13;;;1.70;;
7503;SDS011;3793;48.136;11.536;2022-10-16T11:10:40;1.80;;;1.30;;
7503;SDS011;3793;48.136;11.536;2022-10-16T11:13:10;1.33;;;1.20;;
7503;SDS011;3793;48.136;11.536;2022-10-16T11:15:41;1.48;;;1.38;;
7503;SDS011;3793;48.136;11.536;2022-10-16T11:18:12;1.48;;;1.38;;
7503;SDS011;3793;48.136;11.536;2022-10-16T11:20:42;1.40;;;1.30;;
7503;SDS011;3793;48.136;11.536;2022-10-16T11:23:14;1.83;;;1.10;;
7503;SDS011;3793;48.136;11.536;2022-10-16T11:25:42;1.15;;;1.05;;
7503;SDS011;3793;48.136;11.536;2022-10-16T11:28:10;1.38;;;1.15;;
7503;SDS011;3793;48.136;11.536;2022-10-16T11:30:39;0.90;;;0.90;;
7503;SDS011;3793;48.136;11.536;2022-10-16T11:33:11;1.33;;;0.85;;
7503;SDS011;3793;48.136;11.536;2022-10-16T11:35:43;1.58;;;0.82;;
7503;SDS011;3793;48.136;11.536;2022-10-16T11:38:14;0.95;;;0.55;;
7503;SDS011;3793;48.136;11.536;2022-10-16T11:40:42;1.17;;;0.98;;
7503;SDS011;3793;48.136;11.536;2022-10-16T11:43:10;1.15;;;0.82;;
7503;SDS011;3793;48.136;11.536;2022-10-16T11:45:40;0.80;;;0.70;;
7503;SDS011;3793;48.136;11.536;2022-10-16T11:48:12;0.70;;;0.70;;
7503;SDS011;3793;48.136;11.536;2022-10-16T11:50:43;1.88;;;1.30;;
7503;SDS011;3793;48.136;11.536;2022-10-16T11:53:13;1.17;;;1.08;;
7503;SDS011;3793;48.136;11.536;2022-10-16T11:55:43;0.65;;;0.65;;
7503;SDS011;3793;48.136;11.536;2022-10-16T11:58:12;1.08;;;0.98;;
7503;SDS011;3793;48.136;11.536;2022-10-16T12:00:41;1.33;;;0.90;;
7503;SDS011;3793;48.136;11.536;2022-10-16T12:03:11;1.98;;;1.00;;
7503;SDS011;3793;48.136;11.536;2022-10-16T12:05:46;0.73;;;0.73;;
7503;SDS011;3793;48.136;11.536;2022-10-16T12:08:18;2.55;;;1.23;;
7503;SDS011;3793;48.136;11.536;2022-10-16T12:10:46;1.00;;;0.82;;
7503;SDS011;3793;48.136;11.536;2022-10-16T12:13:29;1.17;;;0.88;;
7503;SDS011;3793;48.136;11.536;2022-10-16T12:16:04;1.80;;;1.00;;
7503;SDS011;3793;48.136;11.536;2022-10-16T12:18:30;3.72;;;1.00;;
7503;SDS011;3793;48.136;11.536;2022-10-16T12:20:57;1.10;;;0.80;;
7503;SDS011;3793;48.136;11.536;2022-10-16T12:23:31;3.10;;;1.02;;
7503;SDS011;3793;48.136;11.536;2022-10-16T12:25:58;1.50;;;1.27;;
7503;SDS011;3793;48.136;11.536;2022-10-16T12:28:26;2.05;;;0.85;;
7503;SDS011;3793;48.136;11.536;2022-10-16T12:30:54;3.15;;;0.98;;
7503;SDS011;3793;48.136;11.536;2022-10-16T12:33:23;1.10;;;0.98;;
7503;SDS011;3793;48.136;11.536;2022-10-16T12:35:50;1.08;;;0.98;;
7503;SDS011;3793;48.136;11.536;2022-10-16T12:38:18;0.80;;;0.80;;
7503;SDS011;3793;48.136;11.536;2022-10-16T12:40:54;1.38;;;1.13;;
7503;SDS011;3793;48.136;11.536;2022-10-16T12:43:27;2.63;;;1.00;;
7503;SDS011;3793;48.136;11.536;2022-10-16T12:46:02;1.25;;;1.02;;
7503;SDS011;3793;48.136;11.536;2022-10-16T12:48:29;1.23;;;1.13;;
7503;SDS011;3793;48.136;11.536;2022-10-16T12:51:10;1.20;;;1.10;;
7503;SDS011;3793;48.136;11.536;2022-10-16T12:53:43;0.80;;;0.80;;
7503;SDS011;3793;48.136;11.536;2022-10-16T12:59:14;1.15;;;0.93;;
7503;SDS011;3793;48.136;11.536;2022-10-16T13:01:57;1.27;;;1.17;;
7503;SDS011;3793;48.136;11.536;2022-10-16T13:05:05;1.90;;;1.05;;
7503;SDS011;3793;48.136;11.536;2022-10-16T13:08:00;1.08;;;1.00;;
7503;SDS011;3793;48.136;11.536;2022-10-16T13:11:02;1.58;;;1.30;;
7503;SDS011;3793;48.136;11.536;2022-10-16T13:13:53;1.33;;;1.20;;
7503;SDS011;3793;48.136;11.536;2022-10-16T13:16:38;1.40;;;1.20;;
7503;SDS011;3793;48.136;11.536;2022-10-16T13:19:16;3.05;;;1.35;;
7503;SDS011;3793;48.136;11.536;2022-10-16T13:21:48;1.30;;;1.20;;
7503;SDS011;3793;48.136;11.536;2022-10-16T13:24:25;2.13;;;0.93;;
7503;SDS011;3793;48.136;11.536;2022-10-16T13:30:18;0.95;;;0.85;;
7503;SDS011;3793;48.136;11.536;2022-10-16T13:47:48;1.50;;;1.17;;
7503;SDS011;3793;48.136;11.536;2022-10-16T13:50:44;1.15;;;0.90;;
7503;SDS011;3793;48.136;11.536;2022-10-16T13:53:29;0.93;;;0.80;;
7503;SDS011;3793;48.136;11.536;2022-10-16T13:59:33;1.20;;;1.10;;
7503;SDS011;3793;48.136;11.536;2022-10-16T14:02:14;0.88;;;0.65;;
7503;SDS011;3793;48.136;11.536;2022-10-16T14:05:11;2.08;;;0.90;;
7503;SDS011;3793;48.136;11.536;2022-10-16T14:08:19;1.45;;;0.90;;
7503;SDS011;3793;48.136;11.536;2022-10-16T14:11:13;1.08;;;0.88;;
7503;SDS011;3793;48.136;11.536;2022-10-16T14:14:09;2.38;;;1.05;;
7503;SDS011;3793;48.136;11.536;2022-10-16T14:17:01;2.17;;;1.15;;
7503;SDS011;3793;48.136;11.536;2022-10-16T14:22:39;2.55;;;1.52;;
7503;SDS011;3793;48.136;11.536;2022-10-16T14:25:26;1.67;;;1.42;;
7503;SDS011;3793;48.136;11.536;2022-10-16T14:28:22;4.05;;;2.65;;
7503;SDS011;3793;48.136;11.536;2022-10-16T14:31:19;1.92;;;1.17;;
7503;SDS011;3793;48.136;11.536;2022-10-16T14:34:22;1.38;;;1.23;;
7503;SDS011;3793;48.136;11.536;2022-10-16T14:36:56;4.18;;;2.00;;
7503;SDS011;3793;48.136;11.536;2022-10-16T14:42:43;0.80;;;0.80;;
7503;SDS011;3793;48.136;11.536;2022-10-16T14:45:24;3.53;;;0.95;;
7503;SDS011;3793;48.136;11.536;2022-10-16T14:47:56;1.88;;;1.40;;
7503;SDS011;3793;48.136;11.536;2022-10-16T14:50:27;2.20;;;1.73;;
7503;SDS011;3793;48.136;11.536;2022-10-16T14:53:11;2.05;;;1.48;;
7503;SDS011;3793;48.136;11.536;2022-10-16T14:55:43;3.78;;;3.05;;
7503;SDS011;3793;48.136;11.536;2022-10-16T15:01:36;1.63;;;1.52;;
7503;SDS011;3793;48.136;11.536;2022-10-16T15:04:37;3.72;;;2.75;;
7503;SDS011;3793;48.136;11.536;2022-10-16T15:07:20;3.72;;;2.88;;
7503;SDS011;3793;48.136;11.536;2022-10-16T15:09:55;4.95;;;2.58;;
7503;SDS011;3793;48.136;11.536;2022-10-16T15:12:30;3.50;;;1.60;;
7503;SDS011;3793;48.136;11.536;2022-10-16T15:17:55;4.07;;;2.97;;
7503;SDS011;3793;48.136;11.536;2022-10-16T15:20:38;3.20;;;2.17;;
7503;SDS011;3793;48.136;11.536;2022-10-16T15:23:29;2.15;;;1.60;;
7503;SDS011;3793;48.136;11.536;2022-10-16T15:26:02;2.13;;;1.40;;
7503;SDS011;3793;48.136;11.536;2022-10-16T15:28:49;1.70;;;1.20;;
7503;SDS011;3793;48.136;11.536;2022-10-16T15:31:18;1.60;;;1.50;;
7503;SDS011;3793;48.136;11.536;2022-10-16T15:40:04;2.58;;;1.50;;
7503;SDS011;3793;48.136;11.536;2022-10-16T15:42:59;1.70;;;1.50;;
7503;SDS011;3793;48.136;11.536;2022-10-16T15:45:34;1.50;;;1.40;;
7503;SDS011;3793;48.136;11.536;2022-10-16T15:48:03;1.90;;;1.58;;
7503;SDS011;3793;48.136;11.536;2022-10-16T15:50:30;2.67;;;1.38;;
7503;SDS011;3793;48.136;11.536;2022-10-16T15:52:56;2.22;;;1.70;;
7503;SDS011;3793;48.136;11.536;2022-10-16T15:55:24;1.20;;;1.10;;
7503;SDS011;3793;48.136;11.536;2022-10-16T15:57:51;1.67;;;1.58;;
7503;SDS011;3793;48.136;11.536;2022-10-16T16:00:18;3.00;;;1.45;;
7503;SDS011;3793;48.136;11.536;2022-10-16T16:02:49;2.95;;;1.90;;
7503;SDS011;3793;48.136;11.536;2022-10-16T16:05:16;2.40;;;1.70;;
7503;SDS011;3793;48.136;11.536;2022-10-16T16:07:42;2.67;;;2.00;;
7503;SDS011;3793;48.136;11.536;2022-10-16T16:10:09;2.15;;;1.83;;
7503;SDS011;3793;48.136;11.536;2022-10-16T16:12:38;2.35;;;1.77;;
7503;SDS011;3793;48.136;11.536;2022-10-16T16:15:05;2.67;;;1.48;;
7503;SDS011;3793;48.136;11.536;2022-10-16T16:17:32;2.80;;;1.95;;
7503;SDS011;3793;48.136;11.536;2022-10-16T16:19:58;3.63;;;2.05;;
7503;SDS011;3793;48.136;11.536;2022-10-16T16:22:25;3.08;;;2.40;;
7503;SDS011;3793;48.136;11.536;2022-10-16T16:24:52;3.47;;;2.10;;
7503;SDS011;3793;48.136;11.536;2022-10-16T16:27:18;2.15;;;1.90;;
7503;SDS011;3793;48.136;11.536;2022-10-16T16:29:47;3.53;;;1.83;;